Time;durP1;ratioP1;P1;durP2;ratioP2;P2;SDS_P1;SDS_P2;PMS_P1;PMS_P2;Temp;Humidity;BMP_temperature;BMP_pressure;BME280_temperature;BME280_humidity;BME280_pressure;Samples;Min_cycle;Max_cycle;Signal;HPM_P1;HPM_P2
2023/03/02 00:01:44;;;;;;;7.17;4.77;;;1.30;99.90;;;;;;5085207;28;20205;-83
2023/03/02 00:04:15;;;;;;;7.33;4.07;;;1.30;99.90;;;;;;5103896;28;20222;-83
2023/03/02 00:06:41;;;;;;;5.73;3.93;;;1.20;99.90;;;;;;5102616;28;20261;-83
2023/03/02 00:09:06;;;;;;;7.30;4.63;;;1.20;99.90;;;;;;5083983;28;20273;-82
2023/03/02 00:11:34;;;;;;;7.23;4.60;;;1.20;99.90;;;;;;5084400;28;20554;-82
2023/03/02 00:13:59;;;;;;;5.87;3.83;;;1.20;99.90;;;;;;5084166;28;20202;-83
2023/03/02 00:16:25;;;;;;;7.17;4.67;;;1.10;99.90;;;;;;5102801;28;20177;-83
2023/03/02 00:18:51;;;;;;;9.27;4.77;;;1.00;99.90;;;;;;5103181;28;20537;-83
2023/03/02 00:21:16;;;;;;;9.07;4.80;;;1.00;99.90;;;;;;5085051;28;20643;-83
2023/03/02 00:23:42;;;;;;;8.63;4.07;;;0.90;99.90;;;;;;5103957;28;20177;-81
2023/03/02 00:26:07;;;;;;;7.90;4.63;;;0.90;99.90;;;;;;5103275;28;20304;-83
2023/03/02 00:28:33;;;;;;;7.10;3.93;;;0.90;99.90;;;;;;5106002;28;20193;-83
2023/03/02 00:31:02;;;;;;;10.97;4.50;;;0.90;99.90;;;;;;5088053;28;20305;-83
2023/03/02 00:33:27;;;;;;;6.33;3.90;;;0.80;99.90;;;;;;5113079;28;20190;-83
2023/03/02 00:35:53;;;;;;;8.50;3.40;;;0.80;99.90;;;;;;5109461;28;20739;-83
2023/03/02 00:38:18;;;;;;;8.90;4.20;;;0.80;99.90;;;;;;5083096;28;20175;-84
2023/03/02 00:40:45;;;;;;;6.27;4.33;;;0.80;99.90;;;;;;5083603;28;20685;-83
2023/03/02 00:43:12;;;;;;;6.60;4.30;;;0.70;99.90;;;;;;5083258;28;20170;-84
2023/03/02 00:45:37;;;;;;;5.50;4.10;;;0.70;99.90;;;;;;5083713;28;20166;-83
2023/03/02 00:48:03;;;;;;;11.13;4.07;;;0.70;99.90;;;;;;5083770;28;20190;-80
2023/03/02 00:50:29;;;;;;;9.90;4.00;;;0.60;99.90;;;;;;5101483;28;20186;-83
2023/03/02 00:52:54;;;;;;;8.23;4.03;;;0.60;99.90;;;;;;5101481;28;20179;-83
2023/03/02 00:55:20;;;;;;;6.93;4.10;;;0.60;99.90;;;;;;5083254;28;20207;-83
2023/03/02 00:57:53;;;;;;;7.77;4.03;;;0.50;99.90;;;;;;5101937;28;20181;-83
2023/03/02 01:00:20;;;;;;;6.70;4.03;;;0.50;99.90;;;;;;5082973;28;20250;-83
2023/03/02 01:02:46;;;;;;;6.33;4.13;;;0.50;99.90;;;;;;5101125;28;20166;-83
2023/03/02 01:05:12;;;;;;;8.77;4.73;;;0.50;99.90;;;;;;5082596;28;20183;-83
2023/03/02 01:07:37;;;;;;;5.10;3.63;;;0.40;99.90;;;;;;5100095;28;20547;-83
2023/03/02 01:10:03;;;;;;;5.03;3.83;;;0.40;99.90;;;;;;5082333;28;20593;-83
2023/03/02 01:12:30;;;;;;;8.53;4.73;;;0.30;99.90;;;;;;5082656;28;20201;-83
2023/03/02 01:14:56;;;;;;;6.90;4.27;;;0.20;99.90;;;;;;5082541;28;20210;-83
2023/03/02 01:17:21;;;;;;;7.20;4.10;;;0.20;99.90;;;;;;5101364;28;20170;-83
2023/03/02 01:19:47;;;;;;;11.33;4.23;;;0.20;99.90;;;;;;5083790;28;20233;-83
2023/03/02 01:22:13;;;;;;;5.43;3.57;;;0.10;99.90;;;;;;5083466;28;20232;-83
2023/03/02 01:24:38;;;;;;;6.77;4.23;;;0.10;99.90;;;;;;5083777;28;20174;-83
2023/03/02 01:27:04;;;;;;;8.77;4.43;;;0.10;99.90;;;;;;5084412;28;20211;-83
2023/03/02 01:29:30;;;;;;;7.30;4.17;;;0.10;99.90;;;;;;5103814;28;20601;-82
2023/03/02 01:31:55;;;;;;;6.73;4.43;;;0.00;99.90;;;;;;5084784;28;20198;-83
2023/03/02 01:34:21;;;;;;;10.13;4.27;;;0.00;99.90;;;;;;5107763;28;20217;-82
2023/03/02 01:36:46;;;;;;;9.90;5.23;;;0.00;99.90;;;;;;5112899;28;20170;-83
2023/03/02 01:39:14;;;;;;;8.73;4.53;;;0.00;99.90;;;;;;5112667;28;20276;-82
2023/03/02 01:41:44;;;;;;;8.00;4.43;;;0.00;99.90;;;;;;5082700;28;20194;-83
2023/03/02 01:44:33;;;;;;;12.30;5.20;;;-0.10;99.90;;;;;;5100769;28;20174;-83
2023/03/02 01:46:59;;;;;;;6.87;4.27;;;-0.10;99.90;;;;;;5100859;28;20188;-82
2023/03/02 01:49:25;;;;;;;7.13;4.73;;;-0.10;99.90;;;;;;5081696;28;20248;-83
2023/03/02 01:51:51;;;;;;;8.70;4.87;;;-0.20;99.90;;;;;;5081717;28;20277;-83
2023/03/02 01:54:21;;;;;;;8.37;4.50;;;-0.20;99.90;;;;;;5081298;28;20194;-83
2023/03/02 01:56:49;;;;;;;7.20;4.60;;;-0.20;99.90;;;;;;5100071;28;20181;-83
2023/03/02 01:59:17;;;;;;;6.90;4.20;;;-0.20;99.90;;;;;;5100356;28;20276;-82
2023/03/02 02:01:49;;;;;;;7.67;4.70;;;-0.10;99.90;;;;;;5082566;28;20257;-83
2023/03/02 02:04:15;;;;;;;11.87;4.80;;;-0.10;99.90;;;;;;5100065;28;20614;-83
2023/03/02 02:06:49;;;;;;;8.37;3.83;;;-0.10;99.90;;;;;;5081634;28;20261;-83
2023/03/02 02:09:19;;;;;;;6.50;4.30;;;-0.10;99.90;;;;;;5081472;28;20217;-83
2023/03/02 02:11:45;;;;;;;7.23;4.70;;;-0.10;99.90;;;;;;5081729;28;20197;-83
2023/03/02 02:14:11;;;;;;;9.03;4.63;;;-0.10;99.90;;;;;;5081401;28;20202;-82
2023/03/02 02:16:37;;;;;;;7.77;4.63;;;-0.10;99.90;;;;;;5081448;28;20177;-83
2023/03/02 02:19:11;;;;;;;10.00;4.37;;;-0.10;99.90;;;;;;5082015;28;20600;-82
2023/03/02 02:21:37;;;;;;;10.70;4.43;;;-0.10;99.90;;;;;;5081393;28;20567;-83
2023/03/02 02:24:08;;;;;;;6.83;4.20;;;-0.10;99.90;;;;;;5081728;28;20200;-83
2023/03/02 02:26:45;;;;;;;9.50;4.90;;;0.00;99.90;;;;;;5081838;28;20177;-83
2023/03/02 02:29:21;;;;;;;7.07;5.00;;;0.00;99.90;;;;;;5099973;28;20154;-83
2023/03/02 02:31:59;;;;;;;9.53;4.43;;;0.00;99.90;;;;;;5081760;28;20220;-82
2023/03/02 02:34:31;;;;;;;7.20;4.27;;;0.10;99.90;;;;;;5082053;28;20224;-85
2023/03/02 02:37:11;;;;;;;7.30;3.97;;;0.10;99.90;;;;;;5081405;28;20218;-86
2023/03/02 02:39:42;;;;;;;8.93;4.80;;;0.10;99.90;;;;;;5080128;28;20622;-83
2023/03/02 02:42:14;;;;;;;7.37;4.47;;;0.20;99.90;;;;;;5081123;28;20564;-83
2023/03/02 02:44:40;;;;;;;6.93;3.97;;;0.20;99.90;;;;;;5100851;28;20183;-83
2023/03/02 02:47:15;;;;;;;6.47;4.40;;;0.20;99.90;;;;;;5101272;28;20173;-84
2023/03/02 02:49:41;;;;;;;6.73;4.53;;;0.20;99.90;;;;;;5105125;28;20157;-83
2023/03/02 02:52:11;;;;;;;9.37;4.27;;;0.20;99.90;;;;;;5107124;28;20201;-85
2023/03/02 02:54:38;;;;;;;7.60;4.67;;;0.20;99.90;;;;;;5101379;28;20200;-86
2023/03/02 02:57:04;;;;;;;7.00;4.13;;;0.20;99.90;;;;;;5079691;28;20234;-83
2023/03/02 02:59:36;;;;;;;7.30;3.77;;;0.30;99.90;;;;;;5097035;28;20175;-84
2023/03/02 03:02:02;;;;;;;9.03;4.73;;;0.30;99.90;;;;;;5096933;28;20207;-83
2023/03/02 03:04:30;;;;;;;6.23;4.23;;;0.30;99.90;;;;;;5080045;28;20215;-83
2023/03/02 03:06:59;;;;;;;6.43;4.37;;;0.30;99.90;;;;;;5097390;28;20178;-84
2023/03/02 03:09:25;;;;;;;7.17;4.23;;;0.30;99.90;;;;;;5079539;28;20202;-83
2023/03/02 03:11:57;;;;;;;7.13;4.00;;;0.40;99.90;;;;;;5079947;28;20206;-84
2023/03/02 03:14:38;;;;;;;9.07;4.23;;;0.30;99.90;;;;;;5098100;28;20284;-83
2023/03/02 03:17:11;;;;;;;7.17;4.23;;;0.40;99.90;;;;;;5098013;28;20177;-83
2023/03/02 03:19:41;;;;;;;6.73;4.00;;;0.30;99.90;;;;;;5079636;28;20265;-84
2023/03/02 03:22:10;;;;;;;9.63;4.47;;;0.40;99.90;;;;;;5098765;28;20197;-83
2023/03/02 03:24:37;;;;;;;6.73;4.17;;;0.40;99.90;;;;;;5079193;28;20182;-84
2023/03/02 03:27:04;;;;;;;9.53;4.80;;;0.30;99.90;;;;;;5097911;28;20228;-83
2023/03/02 03:29:31;;;;;;;9.80;4.10;;;0.30;99.90;;;;;;5079902;28;20543;-83
2023/03/02 03:31:57;;;;;;;10.77;4.83;;;0.30;99.90;;;;;;5098465;28;20631;-83
2023/03/02 03:34:23;;;;;;;6.17;4.17;;;0.30;99.90;;;;;;5080306;28;20214;-84
2023/03/02 03:36:49;;;;;;;9.07;4.40;;;0.30;99.90;;;;;;5097520;28;20176;-83
2023/03/02 03:39:16;;;;;;;7.17;4.90;;;0.30;99.90;;;;;;5097821;28;20167;-85
2023/03/02 03:41:42;;;;;;;5.50;3.50;;;0.30;99.90;;;;;;5079233;28;20201;-83
2023/03/02 03:44:08;;;;;;;5.90;4.13;;;0.30;99.90;;;;;;5097684;28;20188;-85
2023/03/02 03:46:33;;;;;;;9.53;4.37;;;0.30;99.90;;;;;;5097629;28;20213;-84
2023/03/02 03:49:00;;;;;;;5.47;4.07;;;0.30;99.90;;;;;;5080125;28;20185;-83
2023/03/02 03:51:26;;;;;;;8.13;4.73;;;0.30;99.90;;;;;;5079820;28;20201;-84
2023/03/02 03:54:00;;;;;;;6.43;3.97;;;0.30;99.90;;;;;;5080305;28;20214;-83
2023/03/02 03:56:32;;;;;;;6.63;4.03;;;0.30;99.90;;;;;;5081156;28;20192;-84
2023/03/02 03:59:07;;;;;;;7.43;4.63;;;0.30;99.90;;;;;;5081986;28;20180;-83
2023/03/02 04:01:38;;;;;;;6.77;4.20;;;0.30;99.90;;;;;;5081484;28;20201;-83
2023/03/02 04:04:06;;;;;;;7.43;4.10;;;0.30;99.90;;;;;;5080840;28;20205;-84
2023/03/02 04:06:31;;;;;;;6.63;4.37;;;0.40;99.90;;;;;;5097282;28;20186;-84
2023/03/02 04:09:02;;;;;;;7.00;4.57;;;0.30;99.90;;;;;;5098367;28;20235;-83
2023/03/02 04:11:33;;;;;;;7.63;4.70;;;0.30;99.90;;;;;;5080275;28;20299;-82
2023/03/02 04:13:58;;;;;;;8.70;4.67;;;0.30;99.90;;;;;;5101961;28;20240;-83
2023/03/02 04:16:24;;;;;;;8.10;4.13;;;0.30;99.90;;;;;;5101620;28;20181;-83
2023/03/02 04:18:49;;;;;;;7.83;4.93;;;0.30;99.90;;;;;;5083977;28;20254;-83
2023/03/02 04:21:15;;;;;;;7.37;4.30;;;0.30;99.90;;;;;;5083838;28;20220;-83
2023/03/02 04:23:41;;;;;;;7.67;4.83;;;0.20;99.90;;;;;;5083676;28;20597;-83
2023/03/02 04:26:06;;;;;;;6.97;4.70;;;0.20;99.90;;;;;;5084613;28;20189;-83
2023/03/02 04:28:32;;;;;;;7.17;3.87;;;0.20;99.90;;;;;;5101842;28;20239;-84
2023/03/02 04:30:57;;;;;;;6.97;4.37;;;0.20;99.90;;;;;;5082918;28;20257;-83
2023/03/02 04:33:23;;;;;;;6.03;4.07;;;0.20;99.90;;;;;;5101570;28;20178;-83
2023/03/02 04:35:49;;;;;;;7.17;4.30;;;0.20;99.90;;;;;;5083785;28;20166;-83
2023/03/02 04:38:14;;;;;;;8.27;4.60;;;0.20;99.90;;;;;;5102898;28;20166;-83
2023/03/02 04:40:40;;;;;;;7.20;4.27;;;0.20;99.90;;;;;;5083426;28;20209;-83
2023/03/02 04:43:05;;;;;;;6.83;4.30;;;0.20;99.90;;;;;;5100549;28;20225;-84
2023/03/02 04:45:31;;;;;;;6.50;4.47;;;0.20;99.90;;;;;;5081706;28;20254;-84
2023/03/02 04:47:57;;;;;;;7.40;4.27;;;0.20;99.90;;;;;;5082052;28;20677;-83
2023/03/02 04:50:22;;;;;;;9.47;4.40;;;0.20;99.90;;;;;;5100740;28;20201;-83
2023/03/02 04:52:49;;;;;;;8.17;4.07;;;0.40;99.90;;;;;;5082607;28;20185;-84
2023/03/02 04:55:21;;;;;;;5.90;4.00;;;0.20;99.90;;;;;;5100675;28;20201;-84
2023/03/02 04:57:46;;;;;;;9.20;4.83;;;0.20;99.90;;;;;;5083456;28;20178;-82
2023/03/02 05:00:13;;;;;;;5.60;3.70;;;0.20;99.90;;;;;;5083578;28;20181;-85
2023/03/02 05:02:39;;;;;;;6.20;4.00;;;0.20;99.90;;;;;;5102652;28;20174;-83
2023/03/02 05:05:06;;;;;;;5.40;3.87;;;0.30;99.90;;;;;;5103576;28;20645;-84
2023/03/02 05:07:32;;;;;;;4.50;3.67;;;0.20;99.90;;;;;;5108136;28;20207;-83
2023/03/02 05:09:57;;;;;;;5.50;3.37;;;0.20;99.90;;;;;;5091685;28;20699;-83
2023/03/02 05:12:23;;;;;;;5.93;3.90;;;0.20;99.90;;;;;;5101724;28;20186;-83
2023/03/02 05:14:48;;;;;;;7.27;4.37;;;0.20;99.90;;;;;;5082422;28;20198;-84
2023/03/02 05:17:14;;;;;;;6.50;4.17;;;0.20;99.90;;;;;;5083689;28;20170;-83
2023/03/02 05:19:39;;;;;;;6.40;3.43;;;0.20;99.90;;;;;;5083561;28;20179;-83
2023/03/02 05:22:05;;;;;;;8.07;4.10;;;0.20;99.90;;;;;;5101039;28;20190;-83
2023/03/02 05:24:30;;;;;;;6.80;4.37;;;0.20;99.90;;;;;;5080843;28;20178;-84
2023/03/02 05:26:56;;;;;;;8.17;4.17;;;0.30;99.90;;;;;;5081664;28;20178;-84
2023/03/02 05:29:21;;;;;;;6.43;3.67;;;0.30;99.90;;;;;;5082629;28;20207;-83
2023/03/02 05:31:47;;;;;;;5.53;3.90;;;0.40;99.90;;;;;;5099112;28;20194;-84
2023/03/02 05:34:15;;;;;;;8.03;4.10;;;0.40;99.90;;;;;;5099549;28;20218;-85
2023/03/02 05:36:41;;;;;;;7.20;3.93;;;0.40;99.90;;;;;;5080633;28;20174;-84
2023/03/02 05:39:07;;;;;;;6.03;4.10;;;0.40;99.90;;;;;;5080718;28;20220;-84
2023/03/02 05:41:33;;;;;;;8.73;4.23;;;0.40;99.90;;;;;;5097922;28;20609;-84
2023/03/02 05:43:59;;;;;;;6.67;4.10;;;0.40;99.90;;;;;;5080265;28;20217;-84
2023/03/02 05:46:25;;;;;;;6.17;4.23;;;0.40;99.90;;;;;;5098506;28;20644;-84
2023/03/02 05:48:50;;;;;;;6.00;4.10;;;0.40;99.90;;;;;;5097045;28;20191;-84
2023/03/02 05:51:16;;;;;;;5.80;3.60;;;0.40;99.90;;;;;;5099213;28;20247;-84
2023/03/02 05:53:42;;;;;;;6.77;3.60;;;0.30;99.90;;;;;;5081387;28;20202;-84
2023/03/02 05:56:08;;;;;;;7.10;4.17;;;0.30;99.90;;;;;;5100448;28;20193;-84
2023/03/02 05:58:33;;;;;;;7.27;4.10;;;0.40;99.90;;;;;;5101544;28;20170;-84
2023/03/02 06:00:59;;;;;;;5.87;4.00;;;0.30;99.90;;;;;;5079872;28;20198;-84
2023/03/02 06:03:25;;;;;;;8.77;4.33;;;0.30;99.90;;;;;;5099066;28;20186;-84
2023/03/02 06:05:51;;;;;;;7.33;4.23;;;0.30;99.90;;;;;;5080682;28;20182;-85
2023/03/02 06:08:18;;;;;;;6.37;3.70;;;0.60;99.90;;;;;;5081196;28;20177;-84
2023/03/02 06:10:44;;;;;;;7.43;4.17;;;0.30;99.90;;;;;;5081640;28;20208;-84
2023/03/02 06:13:10;;;;;;;7.63;3.93;;;0.20;99.90;;;;;;5085935;28;20180;-84
2023/03/02 06:15:36;;;;;;;7.43;4.53;;;0.20;99.90;;;;;;5101941;28;20635;-84
2023/03/02 06:18:01;;;;;;;9.13;3.67;;;0.20;99.90;;;;;;5080912;28;20173;-84
2023/03/02 06:20:27;;;;;;;6.63;4.17;;;0.20;99.90;;;;;;5099458;28;20228;-84
2023/03/02 06:22:53;;;;;;;8.00;4.27;;;0.10;99.90;;;;;;5080497;28;20185;-84
2023/03/02 06:25:23;;;;;;;9.43;3.93;;;0.10;99.90;;;;;;5079443;28;20215;-84
2023/03/02 06:27:50;;;;;;;6.87;4.23;;;0.00;99.90;;;;;;5079251;28;20183;-84
2023/03/02 06:30:18;;;;;;;7.70;4.40;;;0.10;99.90;;;;;;5097457;28;20167;-84
2023/03/02 06:32:44;;;;;;;5.60;3.63;;;0.10;99.90;;;;;;5079340;28;20272;-86
2023/03/02 06:35:11;;;;;;;6.50;4.07;;;0.00;99.90;;;;;;5077286;28;20198;-87
2023/03/02 06:37:37;;;;;;;7.77;4.10;;;0.00;99.90;;;;;;5097613;28;20188;-79
2023/03/02 06:40:08;;;;;;;7.63;4.13;;;0.00;99.90;;;;;;5096307;28;20178;-79
2023/03/02 06:42:35;;;;;;;6.67;4.40;;;0.00;99.90;;;;;;5095535;28;20146;-80
2023/03/02 06:45:00;;;;;;;7.80;4.40;;;-0.10;99.90;;;;;;5099176;28;20192;-80
2023/03/02 06:47:26;;;;;;;6.67;4.23;;;-0.10;99.90;;;;;;5099121;28;20182;-81
2023/03/02 06:49:51;;;;;;;5.13;3.80;;;0.00;99.90;;;;;;5098702;28;20197;-80
2023/03/02 06:52:17;;;;;;;8.37;4.43;;;-0.10;99.90;;;;;;5099018;28;20216;-82
2023/03/02 06:54:42;;;;;;;6.33;4.23;;;-0.10;99.90;;;;;;5099429;28;20251;-80
2023/03/02 06:57:08;;;;;;;6.57;4.20;;;-0.10;99.90;;;;;;5081160;28;20220;-81
2023/03/02 06:59:34;;;;;;;6.13;4.23;;;-0.10;99.90;;;;;;5079984;28;20181;-81
2023/03/02 07:01:59;;;;;;;6.67;4.57;;;0.00;99.90;;;;;;5098725;28;20193;-81
2023/03/02 07:04:27;;;;;;;6.77;4.13;;;0.00;99.90;;;;;;5098513;28;20173;-83
2023/03/02 07:06:53;;;;;;;6.93;4.33;;;0.00;99.90;;;;;;5099441;28;20541;-83
2023/03/02 07:09:18;;;;;;;6.90;4.00;;;0.00;99.90;;;;;;5099662;28;20271;-82
2023/03/02 07:11:44;;;;;;;7.07;3.97;;;0.10;99.90;;;;;;5080623;28;20727;-83
2023/03/02 07:14:09;;;;;;;6.57;4.03;;;0.10;99.90;;;;;;5099747;28;20193;-82
2023/03/02 07:16:35;;;;;;;10.57;4.47;;;0.10;99.90;;;;;;5082394;28;20652;-83
2023/03/02 07:19:00;;;;;;;11.60;4.57;;;0.20;99.90;;;;;;5082024;28;20280;-82
2023/03/02 07:21:26;;;;;;;6.73;4.27;;;0.20;99.90;;;;;;5083266;28;20285;-82
2023/03/02 07:23:52;;;;;;;9.47;4.67;;;0.30;99.90;;;;;;5093035;28;20174;-83
2023/03/02 07:26:17;;;;;;;11.97;4.73;;;0.30;99.90;;;;;;5094938;28;20262;-83
2023/03/02 07:28:43;;;;;;;7.23;4.63;;;0.30;99.90;;;;;;5102068;28;20181;-82
2023/03/02 07:31:10;;;;;;;9.07;4.70;;;0.30;99.90;;;;;;5100732;28;20265;-83
2023/03/02 07:33:37;;;;;;;8.97;4.90;;;0.40;99.90;;;;;;5101198;28;20170;-83
2023/03/02 07:36:03;;;;;;;8.50;4.60;;;0.40;99.90;;;;;;5099059;28;20174;-83
2023/03/02 07:38:29;;;;;;;8.60;4.30;;;0.50;99.90;;;;;;5080654;28;20185;-83
2023/03/02 07:40:54;;;;;;;8.47;5.10;;;0.50;99.90;;;;;;5080421;28;20189;-83
2023/03/02 07:43:22;;;;;;;8.30;4.00;;;0.60;99.90;;;;;;5080305;28;20197;-83
2023/03/02 07:45:48;;;;;;;8.23;4.33;;;0.60;99.90;;;;;;5098176;28;20202;-82
2023/03/02 07:48:13;;;;;;;7.03;4.50;;;0.70;99.90;;;;;;5083458;28;20171;-81
2023/03/02 07:50:39;;;;;;;9.23;4.70;;;0.70;99.90;;;;;;5084168;28;20572;-83
2023/03/02 07:53:04;;;;;;;7.77;4.47;;;0.80;99.90;;;;;;5102376;28;20170;-83
2023/03/02 07:55:30;;;;;;;10.10;5.13;;;0.80;99.90;;;;;;5083520;28;20197;-83
2023/03/02 07:57:55;;;;;;;6.33;4.37;;;0.80;99.90;;;;;;5082966;28;20181;-83
2023/03/02 08:00:21;;;;;;;7.53;4.70;;;0.90;99.90;;;;;;5082843;28;20194;-82
2023/03/02 08:02:46;;;;;;;9.07;5.17;;;0.90;99.90;;;;;;5100964;28;20235;-83
2023/03/02 08:05:13;;;;;;;7.20;4.23;;;1.10;99.90;;;;;;5082145;28;20182;-83
2023/03/02 08:07:39;;;;;;;12.17;4.53;;;1.10;99.90;;;;;;5082815;28;20178;-83
2023/03/02 08:10:06;;;;;;;9.90;4.60;;;1.20;99.90;;;;;;5082978;28;20566;-83
2023/03/02 08:12:31;;;;;;;8.97;5.17;;;1.20;99.90;;;;;;5083642;28;20186;-83
2023/03/02 08:14:57;;;;;;;9.00;5.13;;;1.30;99.90;;;;;;5084104;28;20224;-84
2023/03/02 08:17:22;;;;;;;8.30;4.90;;;1.40;99.90;;;;;;5084141;28;20265;-83
2023/03/02 08:19:48;;;;;;;7.23;4.57;;;1.40;99.90;;;;;;5084562;28;20192;-83
2023/03/02 08:22:14;;;;;;;8.03;5.53;;;1.50;99.90;;;;;;5103179;28;20256;-83
2023/03/02 08:24:40;;;;;;;7.17;4.50;;;1.50;99.90;;;;;;5104848;28;20174;-83
2023/03/02 08:27:07;;;;;;;7.53;4.67;;;1.60;99.90;;;;;;5104258;28;20219;-83
2023/03/02 08:29:32;;;;;;;8.77;5.00;;;1.70;99.90;;;;;;5104926;28;20186;-83
2023/03/02 08:31:59;;;;;;;9.87;5.17;;;1.70;99.90;;;;;;5085716;28;20229;-83
2023/03/02 08:34:25;;;;;;;7.90;4.57;;;1.80;99.90;;;;;;5105946;28;20201;-83
2023/03/02 08:36:51;;;;;;;7.00;4.77;;;1.90;99.90;;;;;;5105795;28;20170;-83
2023/03/02 08:39:17;;;;;;;10.57;4.70;;;2.00;99.90;;;;;;5101483;28;20174;-83
2023/03/02 08:41:42;;;;;;;11.73;5.00;;;2.10;99.90;;;;;;5101154;28;20254;-82
2023/03/02 08:44:08;;;;;;;7.43;4.87;;;2.10;99.90;;;;;;5100169;28;20189;-84
2023/03/02 08:46:34;;;;;;;11.60;5.17;;;2.20;99.90;;;;;;5082739;28;20197;-82
2023/03/02 08:48:59;;;;;;;7.70;4.40;;;2.30;99.90;;;;;;5100494;28;20645;-84
2023/03/02 08:51:25;;;;;;;5.93;4.20;;;2.40;99.90;;;;;;5100774;28;20658;-83
2023/03/02 08:53:54;;;;;;;12.17;4.60;;;2.40;99.90;;;;;;5082959;28;20220;-83
2023/03/02 08:56:25;;;;;;;8.90;4.50;;;2.50;99.90;;;;;;5100409;28;20711;-83
2023/03/02 08:58:53;;;;;;;8.50;4.87;;;2.60;99.90;;;;;;5100441;28;20158;-83
2023/03/02 09:01:28;;;;;;;7.83;4.90;;;2.70;99.90;;;;;;5100101;28;20194;-82
2023/03/02 09:03:54;;;;;;;9.00;4.50;;;2.90;99.90;;;;;;5081921;28;20629;-82
2023/03/02 09:06:20;;;;;;;8.30;4.63;;;2.90;99.90;;;;;;5080900;28;20177;-83
2023/03/02 09:08:46;;;;;;;8.40;4.43;;;3.00;99.90;;;;;;5099961;28;20178;-82
2023/03/02 09:11:11;;;;;;;8.63;4.73;;;3.10;99.90;;;;;;5081820;28;20202;-82
2023/03/02 09:13:37;;;;;;;9.57;5.00;;;3.20;99.90;;;;;;5100263;28;20181;-82
2023/03/02 09:16:03;;;;;;;7.43;4.57;;;3.20;99.90;;;;;;5081984;28;20178;-82
2023/03/02 09:18:29;;;;;;;9.53;4.67;;;3.30;99.90;;;;;;5082229;28;20641;-82
2023/03/02 09:20:56;;;;;;;9.07;4.73;;;3.30;99.90;;;;;;5081480;28;20193;-82
2023/03/02 09:23:24;;;;;;;9.23;4.77;;;3.50;99.90;;;;;;5100426;28;20661;-82
2023/03/02 09:25:50;;;;;;;6.50;4.23;;;3.50;99.90;;;;;;5082423;28;20170;-82
2023/03/02 09:28:16;;;;;;;8.00;4.40;;;3.60;99.90;;;;;;5100474;28;20196;-82
2023/03/02 09:30:47;;;;;;;5.73;3.60;;;3.70;99.90;;;;;;5082160;28;20190;-82
2023/03/02 09:33:13;;;;;;;9.27;5.23;;;3.80;99.90;;;;;;5082314;28;20169;-81
2023/03/02 09:35:38;;;;;;;7.03;4.20;;;3.80;99.90;;;;;;5100984;28;20198;-82
2023/03/02 09:38:04;;;;;;;7.37;4.50;;;3.80;99.90;;;;;;5101717;28;20693;-81
2023/03/02 09:40:34;;;;;;;8.00;4.50;;;3.90;99.90;;;;;;5093735;28;20246;-82
2023/03/02 09:43:31;;;;;;;8.10;4.20;;;4.00;99.90;;;;;;5099037;28;20198;-82
2023/03/02 09:46:26;;;;;;;7.67;4.73;;;4.10;99.90;;;;;;5099868;28;20159;-83
2023/03/02 09:49:09;;;;;;;9.77;4.77;;;4.20;99.90;;;;;;5081553;28;20651;-82
2023/03/02 09:52:10;;;;;;;8.83;4.57;;;4.20;99.90;;;;;;5098961;28;20190;-82
2023/03/02 09:54:37;;;;;;;6.30;3.97;;;4.40;99.90;;;;;;5099097;28;20193;-81
2023/03/02 09:57:13;;;;;;;7.87;4.50;;;4.50;99.90;;;;;;5098907;28;20235;-81
2023/03/02 09:59:44;;;;;;;7.07;4.30;;;4.60;99.90;;;;;;5080454;28;20536;-82
2023/03/02 10:02:33;;;;;;;12.20;4.30;;;4.70;99.90;;;;;;5098979;28;20190;-81
2023/03/02 10:05:03;;;;;;;11.80;4.60;;;4.70;99.90;;;;;;5080825;28;20170;-81
2023/03/02 10:07:31;;;;;;;11.40;4.50;;;4.80;99.90;;;;;;5098497;28;20170;-81
2023/03/02 10:10:05;;;;;;;7.73;4.40;;;4.80;99.90;;;;;;5080243;28;20204;-81
2023/03/02 10:12:39;;;;;;;7.23;4.50;;;5.00;99.90;;;;;;5099309;28;20595;-81
2023/03/02 10:15:32;;;;;;;8.13;4.53;;;5.00;99.90;;;;;;5081193;28;20208;-81
2023/03/02 10:18:17;;;;;;;7.93;4.20;;;5.10;99.90;;;;;;5060758;28;20206;-81
2023/03/02 10:21:07;;;;;;;8.83;3.90;;;5.30;99.90;;;;;;5098906;28;20189;-81
2023/03/02 10:23:38;;;;;;;7.07;4.83;;;5.30;99.90;;;;;;5099126;28;20165;-81
2023/03/02 10:26:11;;;;;;;13.90;4.17;;;5.40;99.90;;;;;;5080161;28;20171;-81
2023/03/02 10:28:48;;;;;;;6.67;4.37;;;5.40;99.90;;;;;;5099406;28;20172;-81
2023/03/02 10:31:24;;;;;;;7.17;4.10;;;5.50;99.90;;;;;;5099642;28;20249;-81
2023/03/02 10:33:49;;;;;;;7.23;4.33;;;5.60;99.90;;;;;;5099918;28;20178;-81
2023/03/02 10:36:38;;;;;;;8.30;4.57;;;5.60;99.90;;;;;;5080538;28;20181;-81
2023/03/02 10:39:13;;;;;;;7.23;4.40;;;5.70;99.90;;;;;;5081747;28;20224;-81
2023/03/02 10:42:01;;;;;;;6.73;4.17;;;5.80;99.90;;;;;;5101095;28;20197;-81
2023/03/02 10:44:38;;;;;;;7.23;4.10;;;6.10;99.90;;;;;;5107623;28;20174;-82
2023/03/02 10:47:06;;;;;;;6.40;4.23;;;6.00;99.90;;;;;;5112400;28;20163;-80
2023/03/02 10:49:40;;;;;;;7.43;4.43;;;6.10;99.90;;;;;;5094684;28;20174;-79
2023/03/02 10:52:15;;;;;;;6.90;4.57;;;6.20;99.90;;;;;;5100521;28;20189;-80
2023/03/02 10:54:41;;;;;;;10.73;4.57;;;6.20;99.90;;;;;;5098957;28;20292;-79
2023/03/02 10:57:35;;;;;;;6.63;4.20;;;6.30;99.90;;;;;;5082185;28;20568;-79
2023/03/02 11:00:16;;;;;;;7.77;4.70;;;6.30;99.90;;;;;;5100742;28;20182;-80
2023/03/02 11:03:20;;;;;;;9.07;4.47;;;6.40;99.90;;;;;;5100175;28;20174;-79
2023/03/02 11:05:46;;;;;;;7.83;4.70;;;6.50;99.90;;;;;;5100463;28;20467;-79
2023/03/02 11:08:20;;;;;;;7.10;4.50;;;6.50;99.90;;;;;;5100574;28;20201;-79
2023/03/02 11:10:56;;;;;;;6.93;4.10;;;6.60;99.90;;;;;;5099396;28;20225;-79
2023/03/02 11:13:34;;;;;;;6.03;4.00;;;6.60;99.90;;;;;;5083008;28;20162;-79
2023/03/02 11:16:01;;;;;;;6.77;3.90;;;6.70;99.90;;;;;;5081660;28;20174;-79
2023/03/02 11:18:50;;;;;;;7.60;4.77;;;6.80;99.90;;;;;;5082331;28;20178;-79
2023/03/02 11:21:19;;;;;;;5.17;3.47;;;6.80;99.90;;;;;;5082895;28;20586;-80
2023/03/02 11:24:06;;;;;;;14.90;5.10;;;6.90;99.90;;;;;;5104372;28;20173;-80
2023/03/02 11:26:46;;;;;;;6.70;4.27;;;6.90;99.90;;;;;;5085204;28;20203;-79
2023/03/02 11:29:14;;;;;;;6.03;4.13;;;7.00;99.90;;;;;;5105320;28;20222;-79
2023/03/02 11:31:53;;;;;;;12.53;4.83;;;7.10;99.90;;;;;;5106128;28;20194;-79
2023/03/02 11:34:31;;;;;;;11.57;4.73;;;7.20;99.90;;;;;;5105206;28;20182;-79
2023/03/02 11:37:12;;;;;;;9.27;4.83;;;7.20;99.90;;;;;;5104738;28;20165;-79
2023/03/02 11:40:00;;;;;;;8.70;4.43;;;7.30;99.90;;;;;;5085017;28;20222;-79
2023/03/02 11:42:30;;;;;;;7.83;4.30;;;7.30;99.90;;;;;;5085062;28;20284;-79
2023/03/02 11:45:04;;;;;;;8.77;5.10;;;7.40;99.90;;;;;;5104188;28;20166;-79
2023/03/02 11:47:32;;;;;;;7.80;4.70;;;7.20;99.90;;;;;;5104426;28;20512;-79
2023/03/02 11:50:04;;;;;;;6.90;4.23;;;7.30;99.90;;;;;;5106523;28;20201;-79
2023/03/02 11:52:33;;;;;;;7.90;4.13;;;7.40;99.90;;;;;;5107015;28;20150;-80
2023/03/02 11:55:16;;;;;;;6.93;4.10;;;7.60;99.90;;;;;;5106551;28;20202;-79
2023/03/02 11:57:49;;;;;;;5.47;3.43;;;7.70;99.90;;;;;;5091511;28;20196;-80
2023/03/02 12:00:26;;;;;;;7.10;4.60;;;7.70;99.90;;;;;;5106723;28;20150;-79
2023/03/02 12:03:14;;;;;;;8.27;3.97;;;7.80;99.90;;;;;;5085706;28;20166;-79
2023/03/02 12:05:46;;;;;;;7.40;3.97;;;7.90;99.90;;;;;;5090394;28;20228;-79
2023/03/02 12:08:18;;;;;;;9.87;4.43;;;7.90;99.90;;;;;;5102476;28;20174;-80
2023/03/02 12:10:55;;;;;;;13.27;5.00;;;7.90;99.90;;;;;;5102718;28;20292;-79
2023/03/02 12:13:28;;;;;;;7.80;4.40;;;8.00;99.90;;;;;;5085452;28;20173;-80
2023/03/02 12:15:57;;;;;;;6.67;4.23;;;7.90;99.90;;;;;;5085561;28;20219;-80
2023/03/02 12:18:23;;;;;;;6.03;3.77;;;7.90;99.90;;;;;;5103161;28;20174;-79
2023/03/02 12:21:01;;;;;;;6.87;4.23;;;8.10;99.90;;;;;;5102894;28;20676;-80
2023/03/02 12:23:27;;;;;;;5.57;4.27;;;8.10;99.90;;;;;;5102547;28;20211;-80
2023/03/02 12:26:05;;;;;;;8.03;4.30;;;8.10;99.90;;;;;;5085124;28;20538;-80
2023/03/02 12:28:37;;;;;;;6.40;4.20;;;8.10;99.90;;;;;;5103836;28;20205;-81
2023/03/02 12:31:12;;;;;;;7.50;4.27;;;8.10;99.90;;;;;;5083830;28;20242;-80
2023/03/02 12:33:45;;;;;;;6.80;4.20;;;8.20;99.90;;;;;;5102828;28;20555;-80
2023/03/02 12:36:28;;;;;;;5.93;4.13;;;8.20;99.90;;;;;;5104491;28;20155;-80
2023/03/02 12:39:29;;;;;;;6.00;4.20;;;8.30;99.90;;;;;;5086220;28;20159;-80
2023/03/02 12:42:34;;;;;;;9.03;4.20;;;8.40;99.90;;;;;;5099389;28;20205;-80
2023/03/02 12:45:03;;;;;;;6.93;3.87;;;8.50;99.90;;;;;;5072176;28;20591;-79
2023/03/02 12:47:30;;;;;;;6.13;4.10;;;8.60;99.90;;;;;;5103218;28;20162;-80
2023/03/02 12:50:03;;;;;;;6.83;4.03;;;8.60;99.90;;;;;;5102965;28;20265;-80
2023/03/02 12:52:33;;;;;;;64.10;8.50;;;8.60;99.90;;;;;;5085412;28;20167;-80
2023/03/02 12:55:06;;;;;;;10.57;4.40;;;8.60;99.90;;;;;;5085514;28;20205;-80
2023/03/02 12:57:32;;;;;;;6.87;4.10;;;8.80;99.90;;;;;;5104916;28;20261;-80
2023/03/02 13:00:00;;;;;;;4.37;3.23;;;8.80;99.90;;;;;;5085613;28;20171;-80
2023/03/02 13:02:29;;;;;;;9.43;3.60;;;8.80;99.90;;;;;;5085775;28;20261;-80
2023/03/02 13:05:01;;;;;;;8.63;3.43;;;8.80;99.90;;;;;;5103925;28;20170;-80
2023/03/02 13:07:36;;;;;;;6.03;4.13;;;8.90;99.90;;;;;;5085134;28;20227;-80